createdAt,value
2022-10-18T00:00:08.503Z,5.60
2022-10-18T00:02:57.680Z,5.30
2022-10-18T00:05:24.223Z,7.60
2022-10-18T00:07:50.873Z,6.00
2022-10-18T00:10:18.441Z,5.60
2022-10-18T00:15:11.838Z,7.20
2022-10-18T00:17:39.110Z,5.30
2022-10-18T00:20:06.397Z,5.50
2022-10-18T00:22:38.533Z,5.50
2022-10-18T00:25:06.626Z,5.70
2022-10-18T00:27:34.012Z,4.90
2022-10-18T00:30:00.772Z,4.90
2022-10-18T00:32:27.411Z,4.80
2022-10-18T00:34:53.986Z,5.00
2022-10-18T00:37:20.713Z,5.20
2022-10-18T00:39:47.434Z,5.50
2022-10-18T00:42:19.353Z,5.20
2022-10-18T00:44:45.882Z,4.80
2022-10-18T00:47:15.744Z,4.90
2022-10-18T00:49:46.530Z,4.80
2022-10-18T00:52:17.913Z,5.10
2022-10-18T00:54:46.542Z,4.60
2022-10-18T00:57:13.749Z,5.00
2022-10-18T00:59:42.228Z,5.50
2022-10-18T01:02:09.063Z,4.60
2022-10-18T01:04:35.842Z,7.40
2022-10-18T01:07:21.469Z,7.70
2022-10-18T01:10:18.151Z,6.30
2022-10-18T01:13:25.729Z,8.10
2022-10-18T01:16:04.913Z,6.80
2022-10-18T01:18:41.012Z,6.80
2022-10-18T01:21:14.533Z,5.80
2022-10-18T01:24:08.666Z,6.00
2022-10-18T01:27:13.238Z,5.70
2022-10-18T01:29:58.268Z,5.50
2022-10-18T01:32:30.140Z,4.90
2022-10-18T01:35:01.051Z,4.50
2022-10-18T01:37:29.918Z,4.60
2022-10-18T01:39:59.290Z,5.30
2022-10-18T01:42:26.790Z,5.80
2022-10-18T01:44:54.329Z,6.50
2022-10-18T01:47:21.626Z,5.70
2022-10-18T01:49:48.339Z,6.10
2022-10-18T01:52:16.126Z,5.60
2022-10-18T01:54:49.786Z,5.60
2022-10-18T01:57:38.503Z,6.00
2022-10-18T02:00:18.876Z,6.70
2022-10-18T02:02:53.365Z,7.80
2022-10-18T02:05:35.460Z,6.90
2022-10-18T02:08:26.579Z,5.90
2022-10-18T02:11:08.887Z,5.30
2022-10-18T02:14:10.773Z,4.90
2022-10-18T02:16:43.053Z,5.20
2022-10-18T02:21:59.401Z,4.70
2022-10-18T02:24:33.966Z,6.00
2022-10-18T02:27:01.090Z,4.90
2022-10-18T02:29:29.057Z,5.40
2022-10-18T02:32:09.523Z,6.00
2022-10-18T02:34:54.875Z,6.00
2022-10-18T02:37:22.609Z,5.60
2022-10-18T02:39:51.031Z,5.10
2022-10-18T02:42:17.685Z,4.30
2022-10-18T02:44:44.378Z,4.20
2022-10-18T02:47:11.957Z,4.50
2022-10-18T02:49:38.625Z,4.00
2022-10-18T02:52:05.239Z,4.70
2022-10-18T02:54:31.953Z,4.30
2022-10-18T02:56:58.533Z,5.40
2022-10-18T02:59:25.138Z,4.20
2022-10-18T03:01:51.789Z,4.30
2022-10-18T03:04:18.670Z,5.30
2022-10-18T03:06:45.368Z,4.70
2022-10-18T03:09:12.073Z,3.70
2022-10-18T03:11:38.585Z,5.30
2022-10-18T03:14:05.245Z,5.00
2022-10-18T03:16:33.326Z,4.90
2022-10-18T03:19:00.006Z,5.70
2022-10-18T03:21:26.652Z,5.40
2022-10-18T03:23:53.124Z,6.60
2022-10-18T03:26:21.011Z,6.60
2022-10-18T03:28:47.767Z,6.30
2022-10-18T03:31:14.538Z,7.30
2022-10-18T03:33:41.205Z,7.00
2022-10-18T03:36:07.793Z,6.50
2022-10-18T03:38:34.449Z,6.70
2022-10-18T03:41:01.196Z,7.00
2022-10-18T03:43:27.791Z,7.10
2022-10-18T03:45:54.384Z,7.80
2022-10-18T03:48:20.900Z,10.10
2022-10-18T03:50:47.466Z,11.10
2022-10-18T03:53:14.199Z,15.00
2022-10-18T03:55:40.933Z,11.30
2022-10-18T03:58:07.625Z,13.40
2022-10-18T04:00:34.933Z,10.10
2022-10-18T04:03:01.541Z,12.40
2022-10-18T04:05:30.345Z,10.40
2022-10-18T04:07:57.873Z,9.40
2022-10-18T04:10:25.472Z,10.30
2022-10-18T04:12:52.209Z,7.90
2022-10-18T04:15:18.933Z,7.90
2022-10-18T04:17:45.957Z,5.70
2022-10-18T04:20:13.248Z,6.70
2022-10-18T04:22:40.486Z,7.20
2022-10-18T04:25:07.696Z,9.40
2022-10-18T04:27:35.610Z,10.50
2022-10-18T04:30:03.381Z,11.30
2022-10-18T04:32:30.294Z,9.30
2022-10-18T04:34:56.906Z,17.30
2022-10-18T04:37:23.566Z,8.30
2022-10-18T04:39:53.465Z,4.50
2022-10-18T04:42:21.408Z,8.60
2022-10-18T04:44:48.243Z,5.70
2022-10-18T04:47:15.682Z,6.30
2022-10-18T04:49:42.803Z,4.90
2022-10-18T04:52:09.624Z,7.60
2022-10-18T04:54:37.036Z,9.10
2022-10-18T04:57:03.722Z,8.00
2022-10-18T04:59:30.397Z,7.80
2022-10-18T05:01:57.141Z,6.50
2022-10-18T05:04:23.836Z,6.40
2022-10-18T05:06:50.401Z,7.50
2022-10-18T05:09:17.414Z,7.60
2022-10-18T05:11:43.928Z,6.90
2022-10-18T05:14:10.682Z,8.50
2022-10-18T05:16:37.328Z,8.70
2022-10-18T05:19:05.249Z,6.60
2022-10-18T05:21:32.721Z,10.00
2022-10-18T05:23:59.510Z,10.70
2022-10-18T05:26:26.141Z,10.90
2022-10-18T05:28:52.797Z,10.10
2022-10-18T05:31:19.648Z,12.60
2022-10-18T05:33:46.567Z,30.00
2022-10-18T05:36:13.580Z,11.00
2022-10-18T05:38:44.929Z,7.40
2022-10-18T05:41:12.177Z,8.80
2022-10-18T05:43:40.070Z,12.10
2022-10-18T05:46:11.872Z,11.60
2022-10-18T05:48:43.710Z,7.20
2022-10-18T05:51:11.112Z,9.60
2022-10-18T05:53:38.355Z,6.80
2022-10-18T05:56:06.491Z,8.60
2022-10-18T05:58:34.431Z,9.00
2022-10-18T06:01:01.893Z,9.00
2022-10-18T06:03:30.048Z,10.90
2022-10-18T06:06:08.472Z,6.80
2022-10-18T06:08:36.067Z,5.30
2022-10-18T06:11:08.065Z,7.90
2022-10-18T06:13:34.797Z,7.90
2022-10-18T06:16:01.572Z,6.30
2022-10-18T06:18:29.137Z,4.40
2022-10-18T06:20:58.260Z,7.40
2022-10-18T06:23:26.492Z,6.50
2022-10-18T06:25:53.694Z,7.20
2022-10-18T06:28:20.333Z,9.10
2022-10-18T06:30:47.101Z,7.10
2022-10-18T06:33:14.064Z,7.90
2022-10-18T06:35:40.909Z,8.60
2022-10-18T06:38:07.580Z,8.10
2022-10-18T06:40:37.396Z,9.10
2022-10-18T06:43:20.207Z,12.20
2022-10-18T06:45:49.629Z,10.60
2022-10-18T06:50:59.780Z,8.00
2022-10-18T06:53:29.681Z,6.40
2022-10-18T06:56:02.157Z,8.20
2022-10-18T06:58:30.411Z,10.60
2022-10-18T07:00:57.955Z,11.60
2022-10-18T07:03:25.745Z,11.30
2022-10-18T07:05:52.420Z,13.90
2022-10-18T07:08:18.972Z,14.10
2022-10-18T07:10:53.150Z,13.40
2022-10-18T07:13:32.121Z,10.40
2022-10-18T07:16:05.332Z,9.90
2022-10-18T07:18:34.057Z,11.70
2022-10-18T07:23:34.575Z,11.60
2022-10-18T07:26:03.655Z,16.90
2022-10-18T07:28:30.645Z,10.70
2022-10-18T07:30:59.417Z,9.00
2022-10-18T07:33:28.914Z,8.20
2022-10-18T07:35:55.646Z,9.90
2022-10-18T07:38:23.138Z,9.00
2022-10-18T07:40:56.987Z,8.20
2022-10-18T07:43:24.210Z,8.90
2022-10-18T07:45:56.228Z,6.50
2022-10-18T07:48:24.297Z,9.50
2022-10-18T07:50:51.623Z,8.10
2022-10-18T07:53:18.373Z,6.60
2022-10-18T07:55:45.193Z,7.60
2022-10-18T07:58:12.361Z,8.70
2022-10-18T08:00:39.878Z,7.10
2022-10-18T08:03:06.467Z,7.00
2022-10-18T08:08:07.969Z,5.70
2022-10-18T08:10:35.578Z,5.30
2022-10-18T08:13:02.409Z,4.70
2022-10-18T08:15:29.357Z,21.40
2022-10-18T08:17:56.234Z,6.70
2022-10-18T08:20:31.348Z,6.40
2022-10-18T08:23:00.284Z,6.00
2022-10-18T08:25:30.024Z,5.00
2022-10-18T08:27:57.287Z,4.70
2022-10-18T08:30:24.096Z,4.70
2022-10-18T08:32:50.633Z,4.50
2022-10-18T08:35:17.349Z,4.40
2022-10-18T08:37:44.864Z,5.70
2022-10-18T08:40:15.281Z,7.10
2022-10-18T08:42:57.658Z,6.10
2022-10-18T08:45:41.027Z,8.00
2022-10-18T08:48:38.836Z,5.50
2022-10-18T08:51:17.029Z,4.20
2022-10-18T08:53:55.457Z,5.20
2022-10-18T08:56:24.152Z,4.70
2022-10-18T08:58:51.087Z,4.60
2022-10-18T09:01:35.781Z,4.90
2022-10-18T09:04:21.482Z,5.10
2022-10-18T09:06:57.249Z,5.00
2022-10-18T09:09:39.488Z,4.80
2022-10-18T09:12:31.051Z,5.80
2022-10-18T09:15:15.589Z,4.80
2022-10-18T09:18:03.718Z,5.90
2022-10-18T09:20:39.467Z,4.40
2022-10-18T09:23:21.325Z,5.40
2022-10-18T09:25:55.048Z,4.90
2022-10-18T09:28:37.951Z,5.60
2022-10-18T09:31:16.149Z,4.20
2022-10-18T09:33:51.946Z,5.50
2022-10-18T09:36:26.449Z,4.20
2022-10-18T09:39:01.549Z,5.00
2022-10-18T09:41:37.607Z,5.90
2022-10-18T09:44:19.353Z,6.60
2022-10-18T09:46:51.621Z,6.00
2022-10-18T09:49:25.006Z,9.30
2022-10-18T09:51:53.509Z,6.70
2022-10-18T09:57:26.095Z,5.80
2022-10-18T09:59:52.854Z,5.60
2022-10-18T10:02:22.354Z,7.60
2022-10-18T10:04:55.870Z,7.60
2022-10-18T10:07:31.177Z,7.10
2022-10-18T10:10:04.019Z,6.20
2022-10-18T10:12:34.430Z,4.70
2022-10-18T10:15:13.367Z,5.80
2022-10-18T10:17:39.981Z,12.40
2022-10-18T10:20:22.771Z,11.60
2022-10-18T10:22:51.100Z,8.70
2022-10-18T10:25:34.209Z,6.30
2022-10-18T10:28:14.692Z,8.70
2022-10-18T10:30:42.057Z,8.10
2022-10-18T10:33:35.746Z,4.70
2022-10-18T10:36:15.281Z,7.30
2022-10-18T10:38:42.241Z,6.10
2022-10-18T10:41:27.379Z,5.70
2022-10-18T10:43:54.227Z,7.30
2022-10-18T10:46:22.609Z,5.80
2022-10-18T10:49:15.333Z,5.30
2022-10-18T10:51:43.061Z,4.70
2022-10-18T10:54:14.515Z,5.10
2022-10-18T10:56:56.161Z,5.10
2022-10-18T10:59:25.903Z,5.10
2022-10-18T11:02:14.674Z,5.60
2022-10-18T11:04:42.436Z,4.20
2022-10-18T11:07:16.220Z,6.60
2022-10-18T11:10:02.050Z,6.50
2022-10-18T11:12:42.375Z,4.70
2022-10-18T11:15:18.167Z,4.70
2022-10-18T11:18:00.255Z,6.10
2022-10-18T11:20:56.529Z,6.80
2022-10-18T11:23:31.200Z,6.60
2022-10-18T11:26:14.007Z,7.70
2022-10-18T11:29:05.064Z,7.50
2022-10-18T11:31:31.712Z,11.30
2022-10-18T11:34:19.921Z,8.90
2022-10-18T11:37:29.474Z,7.50
2022-10-18T11:40:25.803Z,6.90
2022-10-18T11:43:30.315Z,7.00
2022-10-18T11:46:15.466Z,4.90
2022-10-18T11:49:03.824Z,4.70
2022-10-18T11:54:36.765Z,4.90
2022-10-18T11:57:13.212Z,5.00
2022-10-18T11:59:49.175Z,5.10
2022-10-18T12:02:43.111Z,4.90
2022-10-18T12:05:23.220Z,5.80
2022-10-18T12:08:18.785Z,4.40
2022-10-18T12:11:04.675Z,5.10
2022-10-18T12:13:42.691Z,6.30
2022-10-18T12:16:10.591Z,4.50
2022-10-18T12:21:25.404Z,5.60
2022-10-18T12:23:57.879Z,4.70
2022-10-18T12:26:27.809Z,6.00
2022-10-18T12:29:19.825Z,6.90
2022-10-18T12:31:59.175Z,4.40
2022-10-18T12:34:28.955Z,4.90
2022-10-18T12:37:07.750Z,5.60
2022-10-18T12:40:11.430Z,7.00
2022-10-18T12:42:44.803Z,20.10
2022-10-18T12:45:17.275Z,6.20
2022-10-18T12:47:44.033Z,5.00
2022-10-18T12:50:38.345Z,5.70
2022-10-18T12:53:11.718Z,7.20
2022-10-18T12:55:40.529Z,8.10
2022-10-18T12:58:13.329Z,5.10
2022-10-18T13:00:42.899Z,5.20
2022-10-18T13:03:10.105Z,7.00
2022-10-18T13:05:53.960Z,9.50
2022-10-18T13:08:33.392Z,7.80
2022-10-18T13:11:09.487Z,16.80
2022-10-18T13:13:58.954Z,6.40
2022-10-18T13:16:47.186Z,5.20
2022-10-18T13:22:10.806Z,8.70
2022-10-18T13:27:35.087Z,5.60
2022-10-18T13:30:17.972Z,5.90
2022-10-18T13:33:05.807Z,5.10
2022-10-18T13:35:57.950Z,7.10
2022-10-18T13:38:33.683Z,6.70
2022-10-18T13:41:15.756Z,6.90
2022-10-18T13:43:52.693Z,6.50
2022-10-18T13:46:21.779Z,6.00
2022-10-18T13:48:54.364Z,7.30
2022-10-18T13:51:46.191Z,5.80
2022-10-18T13:54:31.311Z,5.90
2022-10-18T13:57:13.238Z,5.20
2022-10-18T14:00:14.232Z,5.00
2022-10-18T14:03:16.268Z,5.20
2022-10-18T14:05:50.844Z,8.70
2022-10-18T14:11:09.483Z,6.40
2022-10-18T14:13:45.243Z,6.50
2022-10-18T14:16:34.938Z,10.50
2022-10-18T14:19:42.367Z,9.10
2022-10-18T14:22:23.223Z,7.40
2022-10-18T14:24:53.833Z,7.00
2022-10-18T14:27:21.805Z,8.10
2022-10-18T14:29:49.812Z,14.20
2022-10-18T14:32:28.359Z,9.70
2022-10-18T14:37:42.769Z,8.40
2022-10-18T14:40:25.513Z,10.00
2022-10-18T14:42:52.299Z,12.10
2022-10-18T14:45:20.788Z,17.00
2022-10-18T14:47:50.690Z,14.20
2022-10-18T14:50:25.462Z,11.70
2022-10-18T14:52:54.834Z,16.60
2022-10-18T14:55:25.062Z,12.90
2022-10-18T14:57:51.956Z,11.00
2022-10-18T15:00:27.672Z,9.10
2022-10-18T15:02:54.285Z,7.70
2022-10-18T15:05:24.336Z,6.60
2022-10-18T15:07:53.050Z,7.90
2022-10-18T15:10:24.853Z,13.10
2022-10-18T15:13:09.237Z,10.20
2022-10-18T15:15:37.650Z,12.20
2022-10-18T15:18:06.270Z,18.30
2022-10-18T15:20:41.616Z,14.60
2022-10-18T15:23:30.682Z,25.60
2022-10-18T15:26:11.796Z,27.40
2022-10-18T15:28:53.164Z,25.70
2022-10-18T15:31:32.559Z,20.80
2022-10-18T15:34:19.924Z,24.90
2022-10-18T15:36:48.287Z,31.00
2022-10-18T15:39:21.397Z,31.60
2022-10-18T15:41:59.776Z,33.50
2022-10-18T15:44:34.221Z,33.20
2022-10-18T15:47:13.313Z,34.00
2022-10-18T15:49:45.984Z,31.70
2022-10-18T15:52:38.249Z,34.70
2022-10-18T15:55:30.656Z,30.70
2022-10-18T15:58:31.485Z,29.70
2022-10-18T16:01:02.105Z,28.50
2022-10-18T16:03:35.701Z,27.00
2022-10-18T16:06:07.621Z,34.20
2022-10-18T16:08:40.467Z,30.00
2022-10-18T16:11:13.288Z,32.60
2022-10-18T16:13:40.110Z,41.50
2022-10-18T16:16:10.791Z,37.00
2022-10-18T16:18:37.567Z,33.90
2022-10-18T16:21:04.270Z,24.40
2022-10-18T16:23:30.892Z,33.20
2022-10-18T16:25:57.587Z,44.80
2022-10-18T16:28:25.446Z,40.70
2022-10-18T16:31:00.745Z,41.90
2022-10-18T16:33:27.716Z,35.50
2022-10-18T16:35:54.699Z,42.10
2022-10-18T16:38:34.165Z,41.20
2022-10-18T16:41:04.495Z,41.40
2022-10-18T16:43:31.657Z,40.40
2022-10-18T16:45:58.542Z,40.70
2022-10-18T16:48:25.319Z,42.20
2022-10-18T16:50:54.793Z,40.10
2022-10-18T16:53:24.402Z,44.10
2022-10-18T16:56:01.828Z,40.50
2022-10-18T16:58:30.641Z,43.30
2022-10-18T17:00:58.874Z,42.80
2022-10-18T17:05:53.558Z,36.30
2022-10-18T17:08:26.229Z,31.10
2022-10-18T17:10:56.954Z,29.70
2022-10-18T17:13:25.256Z,32.00
2022-10-18T17:15:52.781Z,33.30
2022-10-18T17:18:22.347Z,45.20
2022-10-18T17:20:49.506Z,28.60
2022-10-18T17:23:16.145Z,35.80
2022-10-18T17:25:57.367Z,34.80
2022-10-18T17:28:30.825Z,34.70
2022-10-18T17:30:57.674Z,30.30
2022-10-18T17:33:24.346Z,32.90
2022-10-18T17:35:51.207Z,35.00
2022-10-18T17:38:17.899Z,42.90
2022-10-18T17:40:44.502Z,46.50
2022-10-18T17:43:13.240Z,40.20
2022-10-18T17:45:54.191Z,42.90
2022-10-18T17:48:23.303Z,49.00
2022-10-18T17:50:50.299Z,32.50
2022-10-18T17:53:21.896Z,28.50
2022-10-18T17:55:49.056Z,23.30
2022-10-18T17:58:15.907Z,29.20
2022-10-18T18:00:42.554Z,23.20
2022-10-18T18:03:09.310Z,18.40
2022-10-18T18:05:36.135Z,18.10
2022-10-18T18:08:04.090Z,17.00
2022-10-18T18:10:34.138Z,18.30
2022-10-18T18:13:01.909Z,33.10
2022-10-18T18:15:29.289Z,43.50
2022-10-18T18:17:57.366Z,40.20
2022-10-18T18:20:25.947Z,30.50
2022-10-18T18:22:52.685Z,23.00
2022-10-18T18:25:19.488Z,37.70
2022-10-18T18:27:46.035Z,33.00
2022-10-18T18:30:13.753Z,47.40
2022-10-18T18:32:40.432Z,43.60
2022-10-18T18:35:07.495Z,49.30
2022-10-18T18:37:34.213Z,39.60
2022-10-18T18:40:00.833Z,41.60
2022-10-18T18:42:27.557Z,48.00
2022-10-18T18:44:54.178Z,46.80
2022-10-18T18:47:22.788Z,42.30
2022-10-18T18:49:50.887Z,46.30
2022-10-18T18:52:17.657Z,46.10
2022-10-18T18:54:44.569Z,48.80
2022-10-18T18:57:11.254Z,39.80
2022-10-18T18:59:37.862Z,34.80
2022-10-18T19:02:05.066Z,32.90
2022-10-18T19:04:32.165Z,29.00
2022-10-18T19:06:58.836Z,34.30
2022-10-18T19:09:26.818Z,36.90
2022-10-18T19:11:55.758Z,29.80
2022-10-18T19:14:25.220Z,37.10
2022-10-18T19:16:58.237Z,32.80
2022-10-18T19:19:27.794Z,31.50
2022-10-18T19:22:00.236Z,44.30
2022-10-18T19:24:31.871Z,44.70
2022-10-18T19:27:01.777Z,29.50
2022-10-18T19:29:33.966Z,17.40
2022-10-18T19:32:04.290Z,22.90
2022-10-18T19:34:31.975Z,22.50
2022-10-18T19:36:58.632Z,21.70
2022-10-18T19:39:33.795Z,21.10
2022-10-18T19:42:03.853Z,20.50
2022-10-18T19:44:32.473Z,18.80
2022-10-18T19:46:59.595Z,15.50
2022-10-18T19:49:28.281Z,14.20
2022-10-18T19:54:23.603Z,16.50
2022-10-18T19:56:50.557Z,21.30
2022-10-18T19:59:17.285Z,18.80
2022-10-18T20:01:44.846Z,18.40
2022-10-18T20:04:12.849Z,17.50
2022-10-18T20:06:40.746Z,16.50
2022-10-18T20:09:09.547Z,18.40
2022-10-18T20:14:04.970Z,18.80
2022-10-18T20:16:33.208Z,18.60
2022-10-18T20:19:02.060Z,18.40
2022-10-18T20:23:56.269Z,18.80
2022-10-18T20:26:24.787Z,19.60
2022-10-18T20:31:30.858Z,19.60
2022-10-18T20:34:00.231Z,19.40
2022-10-18T20:36:29.418Z,19.90
2022-10-18T20:38:57.306Z,19.60
2022-10-18T20:41:27.539Z,19.50
2022-10-18T20:43:56.594Z,23.60
2022-10-18T20:46:24.330Z,21.00
2022-10-18T20:48:52.154Z,18.30
2022-10-18T20:51:19.947Z,21.50
2022-10-18T20:53:46.703Z,20.60
2022-10-18T20:56:21.757Z,18.80
2022-10-18T20:58:50.727Z,18.70
2022-10-18T21:01:20.304Z,21.30
2022-10-18T21:03:48.598Z,21.20
2022-10-18T21:06:27.005Z,24.50
2022-10-18T21:09:01.745Z,22.70
2022-10-18T21:11:30.269Z,21.40
2022-10-18T21:14:01.994Z,21.30
2022-10-18T21:16:30.341Z,20.20
2022-10-18T21:19:04.829Z,20.70
2022-10-18T21:21:31.750Z,20.90
2022-10-18T21:24:01.194Z,20.10
2022-10-18T21:26:30.695Z,20.80
2022-10-18T21:28:59.120Z,19.20
2022-10-18T21:31:31.884Z,23.90
2022-10-18T21:34:01.155Z,20.80
2022-10-18T21:36:31.854Z,17.20
2022-10-18T21:38:58.556Z,12.10
2022-10-18T21:41:25.480Z,12.00
2022-10-18T21:43:54.320Z,12.90
2022-10-18T21:48:52.016Z,11.10
2022-10-18T21:51:20.622Z,11.20
2022-10-18T21:53:49.931Z,11.70
2022-10-18T21:56:22.144Z,13.20
2022-10-18T21:58:49.163Z,12.40
2022-10-18T22:01:23.237Z,13.50
2022-10-18T22:03:51.991Z,14.80
2022-10-18T22:06:20.329Z,12.30
2022-10-18T22:08:52.780Z,11.90
2022-10-18T22:11:23.143Z,13.20
2022-10-18T22:13:49.937Z,13.40
2022-10-18T22:16:16.852Z,10.80
2022-10-18T22:18:46.629Z,10.30
2022-10-18T22:21:15.701Z,9.70
2022-10-18T22:23:48.592Z,11.40
2022-10-18T22:26:19.561Z,10.40
2022-10-18T22:28:46.764Z,9.00
2022-10-18T22:31:18.779Z,10.70
2022-10-18T22:33:46.438Z,10.40
2022-10-18T22:36:13.369Z,11.10
2022-10-18T22:38:40.128Z,11.10
2022-10-18T22:41:09.025Z,13.70
2022-10-18T22:43:36.087Z,10.10
2022-10-18T22:46:05.881Z,10.30
2022-10-18T22:48:33.392Z,13.90
2022-10-18T22:51:00.822Z,11.00
2022-10-18T22:53:27.825Z,13.10
2022-10-18T22:55:54.718Z,11.40
2022-10-18T22:58:21.747Z,8.40
2022-10-18T23:00:48.560Z,8.50
2022-10-18T23:03:18.625Z,10.30
2022-10-18T23:05:46.373Z,9.30
2022-10-18T23:08:13.993Z,9.90
2022-10-18T23:10:42.054Z,8.50
2022-10-18T23:13:10.130Z,11.70
2022-10-18T23:15:38.527Z,7.60
2022-10-18T23:18:05.514Z,10.10
2022-10-18T23:20:32.079Z,13.10
2022-10-18T23:22:58.666Z,11.00
2022-10-18T23:25:26.577Z,9.20
2022-10-18T23:27:53.495Z,7.60
2022-10-18T23:30:20.538Z,7.60
2022-10-18T23:32:47.299Z,10.50
2022-10-18T23:35:13.964Z,6.50
2022-10-18T23:37:40.538Z,7.20
2022-10-18T23:40:08.745Z,11.30
2022-10-18T23:42:35.278Z,10.30
2022-10-18T23:45:02.139Z,9.30
2022-10-18T23:47:28.755Z,9.60
2022-10-18T23:49:56.715Z,9.90
2022-10-18T23:52:24.337Z,8.60
2022-10-18T23:54:50.991Z,7.30
2022-10-18T23:57:17.525Z,6.30
2022-10-18T23:59:44.090Z,5.30
